createdAt,value
2018-04-15T00:01:55.848Z,96.07
2018-04-15T00:04:23.436Z,96.14
2018-04-15T00:06:51.046Z,96.12
2018-04-15T00:09:18.613Z,96.34
2018-04-15T00:11:46.216Z,96.48
2018-04-15T00:14:13.943Z,96.43
2018-04-15T00:16:41.550Z,96.60
2018-04-15T00:19:09.125Z,96.80
2018-04-15T00:21:36.690Z,96.97
2018-04-15T00:24:04.256Z,97.12
2018-04-15T00:26:31.824Z,97.28
2018-04-15T00:28:59.402Z,97.29
2018-04-15T00:31:26.986Z,97.40
2018-04-15T00:33:54.591Z,97.26
2018-04-15T00:36:22.129Z,97.33
2018-04-15T00:38:49.690Z,97.82
2018-04-15T00:41:17.241Z,97.85
2018-04-15T00:43:44.819Z,97.89
2018-04-15T00:46:12.415Z,97.93
2018-04-15T00:48:40.042Z,97.90
2018-04-15T00:51:07.593Z,98.65
2018-04-15T00:53:46.937Z,98.76
2018-04-15T00:56:14.503Z,99.02
2018-04-15T00:58:42.049Z,98.69
2018-04-15T01:01:09.627Z,98.44
2018-04-15T01:03:37.216Z,98.52
2018-04-15T01:06:04.793Z,98.38
2018-04-15T01:08:32.360Z,98.45
2018-04-15T01:10:59.923Z,98.43
2018-04-15T01:13:27.597Z,98.34
2018-04-15T01:15:55.141Z,98.66
2018-04-15T01:18:22.759Z,98.69
2018-04-15T01:20:50.337Z,98.15
2018-04-15T01:23:17.888Z,98.37
2018-04-15T01:25:45.432Z,98.14
2018-04-15T01:28:13.004Z,98.37
2018-04-15T01:30:40.581Z,98.92
2018-04-15T01:33:08.145Z,98.65
2018-04-15T01:35:35.717Z,98.52
2018-04-15T01:38:03.289Z,98.44
2018-04-15T01:40:30.897Z,98.68
2018-04-15T01:42:58.462Z,98.58
2018-04-15T01:45:26.028Z,98.47
2018-04-15T01:47:53.712Z,98.85
2018-04-15T01:50:21.292Z,98.91
2018-04-15T01:52:48.878Z,98.50
2018-04-15T01:55:16.488Z,98.33
2018-04-15T01:57:44.104Z,98.32
2018-04-15T02:00:11.681Z,98.23
2018-04-15T02:02:39.242Z,98.19
2018-04-15T02:05:06.809Z,98.58
2018-04-15T02:07:34.370Z,98.31
2018-04-15T02:10:01.966Z,97.99
2018-04-15T02:12:29.529Z,98.11
2018-04-15T02:14:57.095Z,98.47
2018-04-15T02:17:24.666Z,98.37
2018-04-15T02:19:52.208Z,98.51
2018-04-15T02:22:19.768Z,97.93
2018-04-15T02:24:47.365Z,98.09
2018-04-15T02:27:14.918Z,98.73
2018-04-15T02:29:42.511Z,99.03
2018-04-15T02:32:10.097Z,98.22
2018-04-15T02:34:37.696Z,98.47
2018-04-15T02:37:05.259Z,98.04
2018-04-15T02:39:32.844Z,98.06
2018-04-15T02:42:00.436Z,97.94
2018-04-15T02:44:27.993Z,97.69
2018-04-15T02:46:55.561Z,98.12
2018-04-15T02:49:23.171Z,98.10
2018-04-15T02:51:50.774Z,97.79
2018-04-15T02:54:18.429Z,97.87
2018-04-15T02:56:46.013Z,97.99
2018-04-15T02:59:13.609Z,97.67
2018-04-15T03:01:41.173Z,98.20
2018-04-15T03:04:08.731Z,98.35
2018-04-15T03:06:36.290Z,98.34
2018-04-15T03:09:03.849Z,98.27
2018-04-15T03:11:31.434Z,98.29
2018-04-15T03:13:58.973Z,98.20
2018-04-15T03:16:26.580Z,98.99
2018-04-15T03:18:54.155Z,98.85
2018-04-15T03:21:21.817Z,98.77
2018-04-15T03:23:49.381Z,98.29
2018-04-15T03:26:16.954Z,98.21
2018-04-15T03:28:44.544Z,98.61
2018-04-15T03:31:12.158Z,98.34
2018-04-15T03:33:39.756Z,98.69
2018-04-15T03:36:07.405Z,98.46
2018-04-15T03:38:35.016Z,98.11
2018-04-15T03:41:02.581Z,98.75
2018-04-15T03:43:30.149Z,98.46
2018-04-15T03:45:57.690Z,98.31
2018-04-15T03:48:25.263Z,98.35
2018-04-15T03:50:52.838Z,98.20
2018-04-15T03:53:20.392Z,98.88
2018-04-15T03:55:47.973Z,98.42
2018-04-15T03:58:15.536Z,98.09
2018-04-15T04:00:43.121Z,97.98
2018-04-15T04:03:10.742Z,98.08
2018-04-15T04:05:38.374Z,98.05
2018-04-15T04:08:05.958Z,98.06
2018-04-15T04:10:33.542Z,97.99
2018-04-15T04:13:01.166Z,97.87
2018-04-15T04:15:28.927Z,97.72
2018-04-15T04:18:08.510Z,97.78
2018-04-15T04:20:47.704Z,98.33
2018-04-15T04:23:27.093Z,98.47
2018-04-15T04:26:05.535Z,98.01
2018-04-15T04:28:33.944Z,97.96
2018-04-15T04:31:01.494Z,97.85
2018-04-15T04:33:29.040Z,97.59
2018-04-15T04:35:56.688Z,97.54
2018-04-15T04:38:24.241Z,97.37
2018-04-15T04:40:51.781Z,97.03
2018-04-15T04:43:19.332Z,96.94
2018-04-15T04:45:46.903Z,96.83
2018-04-15T04:48:14.537Z,97.11
2018-04-15T04:50:42.197Z,97.26
2018-04-15T04:53:09.790Z,97.17
2018-04-15T04:55:37.439Z,97.04
2018-04-15T04:58:05.070Z,97.14
2018-04-15T05:00:32.652Z,97.29
2018-04-15T05:03:00.228Z,97.42
2018-04-15T05:05:27.819Z,97.44
2018-04-15T05:07:55.392Z,97.08
2018-04-15T05:10:22.951Z,97.11
2018-04-15T05:12:50.602Z,97.16
2018-04-15T05:15:18.248Z,97.17
2018-04-15T05:17:45.896Z,97.09
2018-04-15T05:20:13.538Z,97.48
2018-04-15T05:22:41.118Z,97.30
2018-04-15T05:25:09.154Z,97.22
2018-04-15T05:27:36.804Z,97.41
2018-04-15T05:33:02.495Z,97.11
2018-04-15T05:35:30.055Z,97.20
2018-04-15T05:37:57.677Z,97.16
2018-04-15T05:40:25.341Z,97.01
2018-04-15T05:42:53.136Z,98.08
2018-04-15T05:45:20.816Z,97.47
2018-04-15T05:47:48.501Z,96.68
2018-04-15T05:50:16.144Z,96.59
2018-04-15T05:52:43.771Z,96.56
2018-04-15T05:55:11.362Z,96.60
2018-04-15T05:57:38.948Z,96.57
2018-04-15T06:00:06.541Z,96.75
2018-04-15T06:02:34.129Z,96.57
2018-04-15T06:05:01.693Z,96.28
2018-04-15T06:07:29.264Z,95.94
2018-04-15T06:09:56.846Z,95.61
2018-04-15T06:12:24.512Z,95.46
2018-04-15T06:14:52.186Z,95.54
2018-04-15T06:17:19.772Z,95.98
2018-04-15T06:19:47.348Z,95.91
2018-04-15T06:22:14.927Z,95.91
2018-04-15T06:24:42.568Z,95.61
2018-04-15T06:27:10.187Z,95.38
2018-04-15T06:29:37.759Z,95.54
2018-04-15T06:32:05.429Z,96.11
2018-04-15T06:34:33.028Z,95.36
2018-04-15T06:37:00.566Z,96.36
2018-04-15T06:39:29.874Z,97.45
2018-04-15T06:41:57.648Z,96.87
2018-04-15T06:44:25.265Z,96.85
2018-04-15T06:46:52.839Z,96.33
2018-04-15T06:49:20.488Z,96.26
2018-04-15T06:51:48.060Z,97.00
2018-04-15T06:54:15.612Z,95.63
2018-04-15T06:56:43.164Z,96.58
2018-04-15T06:59:10.751Z,96.77
2018-04-15T07:01:38.421Z,96.17
2018-04-15T07:04:06.325Z,96.42
2018-04-15T07:06:34.026Z,96.37
2018-04-15T07:09:01.610Z,95.99
2018-04-15T07:11:29.201Z,96.20
2018-04-15T07:13:56.784Z,95.77
2018-04-15T07:16:24.366Z,95.89
2018-04-15T07:18:51.956Z,95.85
2018-04-15T07:21:19.552Z,95.23
2018-04-15T07:23:47.125Z,95.60
2018-04-15T07:26:14.680Z,94.82
2018-04-15T07:28:42.233Z,94.99
2018-04-15T07:31:09.800Z,95.52
2018-04-15T07:33:37.372Z,95.06
2018-04-15T07:36:04.986Z,94.77
2018-04-15T07:38:32.572Z,94.44
2018-04-15T07:41:00.222Z,94.88
2018-04-15T07:43:28.559Z,94.88
2018-04-15T07:45:56.150Z,94.95
2018-04-15T07:48:23.741Z,95.48
2018-04-15T07:50:51.344Z,95.13
2018-04-15T07:53:18.898Z,94.80
2018-04-15T07:55:46.442Z,95.86
2018-04-15T07:58:14.048Z,95.64
2018-04-15T08:00:41.680Z,95.98
2018-04-15T08:03:09.267Z,94.85
2018-04-15T08:05:36.885Z,94.70
2018-04-15T08:08:04.540Z,94.38
2018-04-15T08:10:32.092Z,94.19
2018-04-15T08:12:59.678Z,93.95
2018-04-15T08:15:27.456Z,94.07
2018-04-15T08:17:55.088Z,93.79
2018-04-15T08:20:22.966Z,93.36
2018-04-15T08:22:50.575Z,94.10
2018-04-15T08:25:18.141Z,93.19
2018-04-15T08:27:45.939Z,93.23
2018-04-15T08:30:13.528Z,92.95
2018-04-15T08:32:41.147Z,92.90
2018-04-15T08:35:08.760Z,93.09
2018-04-15T08:37:36.409Z,92.88
2018-04-15T08:40:04.052Z,92.75
2018-04-15T08:42:31.635Z,93.16
2018-04-15T08:44:59.294Z,93.34
2018-04-15T08:47:26.918Z,93.62
2018-04-15T08:49:54.478Z,93.23
2018-04-15T08:52:22.062Z,93.45
2018-04-15T08:54:49.650Z,93.68
2018-04-15T08:57:17.366Z,93.63
2018-04-15T08:59:44.993Z,93.58
2018-04-15T09:02:12.615Z,93.95
2018-04-15T09:04:40.220Z,93.19
2018-04-15T09:07:08.064Z,93.23
2018-04-15T09:09:35.838Z,93.04
2018-04-15T09:12:03.462Z,92.65
2018-04-15T09:14:31.021Z,92.81
2018-04-15T09:16:58.621Z,92.18
2018-04-15T09:19:26.235Z,92.51
2018-04-15T09:21:53.991Z,92.84
2018-04-15T09:24:21.601Z,92.43
2018-04-15T09:26:49.162Z,92.77
2018-04-15T09:29:16.787Z,92.05
2018-04-15T09:31:44.416Z,92.46
2018-04-15T09:34:11.995Z,92.46
2018-04-15T09:36:39.688Z,92.90
2018-04-15T09:39:07.300Z,92.01
2018-04-15T09:41:34.959Z,92.03
2018-04-15T09:44:02.727Z,92.15
2018-04-15T09:46:30.302Z,91.62
2018-04-15T09:48:57.873Z,91.74
2018-04-15T09:51:25.480Z,92.23
2018-04-15T09:53:53.064Z,91.38
2018-04-15T09:56:20.672Z,92.25
2018-04-15T09:58:48.260Z,92.20
2018-04-15T10:01:16.765Z,91.31
2018-04-15T10:03:44.322Z,92.36
2018-04-15T10:06:11.903Z,91.76
2018-04-15T10:08:39.469Z,91.18
2018-04-15T10:11:07.200Z,90.11
2018-04-15T10:13:35.177Z,90.36
2018-04-15T10:16:02.762Z,89.54
2018-04-15T10:18:30.318Z,89.12
2018-04-15T10:20:57.936Z,89.01
2018-04-15T10:23:25.515Z,86.96
2018-04-15T10:25:53.467Z,86.83
2018-04-15T10:28:21.059Z,86.89
2018-04-15T10:30:48.612Z,86.62
2018-04-15T10:33:16.204Z,86.23
2018-04-15T10:35:43.789Z,86.31
2018-04-15T10:38:11.664Z,85.71
2018-04-15T10:40:39.352Z,85.45
2018-04-15T10:43:06.933Z,85.35
2018-04-15T10:45:34.514Z,85.45
2018-04-15T10:48:02.095Z,85.81
2018-04-15T10:50:29.696Z,84.29
2018-04-15T10:52:57.288Z,83.19
2018-04-15T10:55:24.885Z,84.65
2018-04-15T10:57:52.583Z,83.94
2018-04-15T11:00:20.314Z,83.34
2018-04-15T11:02:47.946Z,83.20
2018-04-15T11:05:15.529Z,80.97
2018-04-15T11:07:43.088Z,81.56
2018-04-15T11:10:10.679Z,81.19
2018-04-15T11:12:38.375Z,82.13
2018-04-15T11:15:05.946Z,81.65
2018-04-15T11:17:33.535Z,80.76
2018-04-15T11:20:01.226Z,81.52
2018-04-15T11:22:28.802Z,80.23
2018-04-15T11:24:56.640Z,79.52
2018-04-15T11:27:24.333Z,81.14
2018-04-15T11:29:51.913Z,80.72
2018-04-15T11:32:19.612Z,79.83
2018-04-15T11:34:47.194Z,80.56
2018-04-15T11:37:14.817Z,79.67
2018-04-15T11:39:42.380Z,79.90
2018-04-15T11:42:09.933Z,80.34
2018-04-15T11:44:37.534Z,80.05
2018-04-15T11:47:05.122Z,79.26
2018-04-15T11:49:32.709Z,79.16
2018-04-15T11:52:00.614Z,79.63
2018-04-15T11:54:28.283Z,78.88
2018-04-15T11:56:55.876Z,78.09
2018-04-15T11:59:23.503Z,78.39
2018-04-15T12:01:51.111Z,78.13
2018-04-15T12:04:18.676Z,78.20
2018-04-15T12:06:46.237Z,77.40
2018-04-15T12:09:13.812Z,76.26
2018-04-15T12:11:41.380Z,78.22
2018-04-15T12:14:09.082Z,75.36
2018-04-15T12:16:36.665Z,76.85
2018-04-15T12:19:04.497Z,76.02
2018-04-15T12:21:32.273Z,76.73
2018-04-15T12:23:59.867Z,76.12
2018-04-15T12:26:27.449Z,76.72
2018-04-15T12:28:55.019Z,75.34
2018-04-15T12:31:22.588Z,75.36
2018-04-15T12:33:50.252Z,75.26
2018-04-15T12:36:17.830Z,75.65
2018-04-15T12:38:45.402Z,76.34
2018-04-15T12:41:12.969Z,76.08
2018-04-15T12:43:40.607Z,76.57
2018-04-15T12:46:08.268Z,76.30
2018-04-15T12:48:35.917Z,76.23
2018-04-15T12:51:03.577Z,76.20
2018-04-15T12:53:31.189Z,76.00
2018-04-15T12:55:58.800Z,76.41
2018-04-15T12:58:26.386Z,75.35
2018-04-15T13:00:54.134Z,76.35
2018-04-15T13:03:21.754Z,76.00
2018-04-15T13:05:49.361Z,75.77
2018-04-15T13:08:17.086Z,75.28
2018-04-15T13:10:44.715Z,74.21
2018-04-15T13:13:12.498Z,74.03
2018-04-15T13:15:40.374Z,74.08
2018-04-15T13:18:07.989Z,73.13
2018-04-15T13:20:35.898Z,73.19
2018-04-15T13:23:04.673Z,73.51
2018-04-15T13:25:32.297Z,73.83
2018-04-15T13:28:00.421Z,73.25
2018-04-15T13:30:28.227Z,71.65
2018-04-15T13:32:56.085Z,72.52
2018-04-15T13:35:23.735Z,71.85
2018-04-15T13:37:51.418Z,72.51
2018-04-15T13:40:19.005Z,72.88
2018-04-15T13:42:46.570Z,73.62
2018-04-15T13:45:14.149Z,73.29
2018-04-15T13:47:41.759Z,73.25
2018-04-15T13:50:09.336Z,73.20
2018-04-15T13:52:36.922Z,72.55
2018-04-15T13:55:04.878Z,72.70
2018-04-15T13:57:32.447Z,72.84
2018-04-15T14:00:00.128Z,72.64
2018-04-15T14:02:27.717Z,72.75
2018-04-15T14:04:55.379Z,73.11
2018-04-15T14:07:22.933Z,73.09
2018-04-15T14:09:50.971Z,72.59
2018-04-15T14:12:18.983Z,72.89
2018-04-15T14:14:46.588Z,73.61
2018-04-15T14:17:14.510Z,72.70
2018-04-15T14:19:42.084Z,72.62
2018-04-15T14:22:09.677Z,72.12
2018-04-15T14:24:37.286Z,72.23
2018-04-15T14:27:04.847Z,71.67
2018-04-15T14:29:32.399Z,71.61
2018-04-15T14:32:00.151Z,72.02
2018-04-15T14:34:27.770Z,71.69
2018-04-15T14:36:55.329Z,72.76
2018-04-15T14:39:23.060Z,72.55
2018-04-15T14:41:50.645Z,71.97
2018-04-15T14:44:18.214Z,71.52
2018-04-15T14:46:45.807Z,71.80
2018-04-15T14:49:13.361Z,71.88
2018-04-15T14:51:40.933Z,71.58
2018-04-15T14:54:08.522Z,71.19
2018-04-15T14:56:36.099Z,70.74
2018-04-15T14:59:03.747Z,71.43
2018-04-15T15:01:31.487Z,71.71
2018-04-15T15:03:59.267Z,71.27
2018-04-15T15:06:26.824Z,70.73
2018-04-15T15:08:54.444Z,70.82
2018-04-15T15:11:22.297Z,70.75
2018-04-15T15:13:49.904Z,70.75
2018-04-15T15:16:17.512Z,71.07
2018-04-15T15:18:45.276Z,71.75
2018-04-15T15:21:12.890Z,71.72
2018-04-15T15:23:40.570Z,71.38
2018-04-15T15:26:08.210Z,70.71
2018-04-15T15:28:35.771Z,70.88
2018-04-15T15:31:04.046Z,70.76
2018-04-15T15:33:31.610Z,70.67
2018-04-15T15:35:59.201Z,70.59
2018-04-15T15:38:26.785Z,70.92
2018-04-15T15:40:54.341Z,71.30
2018-04-15T15:43:21.930Z,71.38
2018-04-15T15:45:49.580Z,71.57
2018-04-15T15:48:17.242Z,71.37
2018-04-15T15:50:44.831Z,71.24
2018-04-15T15:53:12.465Z,71.59
2018-04-15T15:55:40.199Z,71.33
2018-04-15T15:58:07.813Z,71.19
2018-04-15T16:00:35.434Z,71.14
2018-04-15T16:03:02.987Z,70.89
2018-04-15T16:05:30.542Z,70.61
2018-04-15T16:07:58.094Z,70.97
2018-04-15T16:10:25.685Z,70.39
2018-04-15T16:12:53.281Z,70.36
2018-04-15T16:15:20.850Z,70.67
2018-04-15T16:17:48.530Z,71.08
2018-04-15T16:20:16.159Z,70.96
2018-04-15T16:22:43.813Z,71.15
2018-04-15T16:25:11.523Z,71.41
2018-04-15T16:27:39.260Z,71.40
2018-04-15T16:30:07.036Z,71.48
2018-04-15T16:32:34.616Z,71.76
2018-04-15T16:35:02.166Z,71.78
2018-04-15T16:37:29.825Z,71.92
2018-04-15T16:39:58.141Z,71.88
2018-04-15T16:42:25.988Z,72.12
2018-04-15T16:44:53.572Z,72.17
2018-04-15T16:47:21.130Z,72.33
2018-04-15T16:49:48.705Z,72.29
2018-04-15T16:52:16.305Z,72.34
2018-04-15T16:54:43.969Z,72.54
2018-04-15T16:57:11.579Z,72.80
2018-04-15T16:59:39.146Z,72.93
2018-04-15T17:02:06.753Z,72.99
2018-04-15T17:04:34.325Z,73.16
2018-04-15T17:07:01.989Z,73.31
2018-04-15T17:09:29.556Z,73.22
2018-04-15T17:11:57.154Z,73.78
2018-04-15T17:14:24.814Z,73.85
2018-04-15T17:16:52.524Z,73.91
2018-04-15T17:19:20.552Z,73.91
2018-04-15T17:21:48.118Z,74.16
2018-04-15T17:24:15.679Z,74.28
2018-04-15T17:26:43.495Z,74.50
2018-04-15T17:29:11.509Z,74.82
2018-04-15T17:31:39.089Z,74.80
2018-04-15T17:34:06.662Z,75.16
2018-04-15T17:36:34.282Z,75.15
2018-04-15T17:39:01.887Z,75.42
2018-04-15T17:41:29.605Z,75.51
2018-04-15T17:43:57.175Z,75.51
2018-04-15T17:46:24.990Z,75.71
2018-04-15T17:48:52.863Z,75.81
2018-04-15T17:51:20.824Z,76.05
2018-04-15T17:53:48.373Z,76.24
2018-04-15T17:56:16.395Z,76.29
2018-04-15T17:58:44.021Z,76.42
2018-04-15T18:01:14.913Z,76.74
2018-04-15T18:03:42.729Z,76.85
2018-04-15T18:06:10.523Z,76.75
2018-04-15T18:08:38.147Z,77.03
2018-04-15T18:11:05.987Z,77.27
2018-04-15T18:13:33.620Z,77.41
2018-04-15T18:16:01.220Z,77.64
2018-04-15T18:18:28.938Z,78.00
2018-04-15T18:20:56.943Z,78.13
2018-04-15T18:23:24.591Z,78.22
2018-04-15T18:25:52.214Z,78.45
2018-04-15T18:28:20.102Z,78.61
2018-04-15T18:30:47.696Z,78.84
2018-04-15T18:33:15.281Z,79.48
2018-04-15T18:35:42.879Z,79.70
2018-04-15T18:38:10.537Z,79.80
2018-04-15T18:40:38.113Z,80.16
2018-04-15T18:43:05.765Z,80.23
2018-04-15T18:45:33.379Z,80.31
2018-04-15T18:48:02.851Z,80.67
2018-04-15T18:50:30.437Z,80.60
2018-04-15T18:52:58.012Z,80.79
2018-04-15T18:55:25.812Z,81.31
2018-04-15T18:57:53.596Z,81.45
2018-04-15T19:00:21.139Z,81.57
2018-04-15T19:02:50.111Z,81.94
2018-04-15T19:05:18.085Z,81.92
2018-04-15T19:07:45.671Z,82.16
2018-04-15T19:10:13.301Z,82.48
2018-04-15T19:12:40.865Z,82.81
2018-04-15T19:15:08.427Z,83.43
2018-04-15T19:17:36.236Z,83.84
2018-04-15T19:20:04.057Z,83.87
2018-04-15T19:22:31.604Z,84.12
2018-04-15T19:24:59.174Z,84.81
2018-04-15T19:27:26.752Z,84.82
2018-04-15T19:29:54.342Z,85.11
2018-04-15T19:32:22.305Z,85.53
2018-04-15T19:34:51.105Z,85.90
2018-04-15T19:37:18.815Z,86.36
2018-04-15T19:39:46.740Z,86.72
2018-04-15T19:42:14.902Z,86.86
2018-04-15T19:44:42.509Z,87.19
2018-04-15T19:47:10.069Z,87.57
2018-04-15T19:49:37.635Z,87.64
2018-04-15T19:52:05.215Z,87.81
2018-04-15T19:54:32.849Z,88.30
2018-04-15T19:57:00.399Z,88.21
2018-04-15T19:59:28.035Z,88.61
2018-04-15T20:01:55.643Z,88.75
2018-04-15T20:04:23.216Z,88.75
2018-04-15T20:06:50.785Z,88.95
2018-04-15T20:09:18.373Z,89.27
2018-04-15T20:11:46.103Z,89.35
2018-04-15T20:14:13.712Z,89.62
2018-04-15T20:16:41.422Z,89.91
2018-04-15T20:19:09.026Z,90.05
2018-04-15T20:21:36.683Z,90.19
2018-04-15T20:24:05.255Z,90.15
2018-04-15T20:26:32.827Z,90.26
2018-04-15T20:29:00.413Z,90.25
2018-04-15T20:31:28.042Z,90.08
2018-04-15T20:33:55.606Z,89.76
2018-04-15T20:36:23.163Z,90.40
2018-04-15T20:38:50.780Z,90.24
2018-04-15T20:41:18.414Z,90.44
2018-04-15T20:43:45.946Z,90.78
2018-04-15T20:46:14.253Z,90.75
2018-04-15T20:48:41.915Z,90.31
2018-04-15T20:51:09.551Z,90.39
2018-04-15T20:53:37.189Z,90.33
2018-04-15T20:56:04.771Z,91.09
2018-04-15T20:58:32.540Z,91.67
2018-04-15T21:01:00.168Z,92.00
2018-04-15T21:03:27.761Z,91.73
2018-04-15T21:05:55.323Z,91.48
2018-04-15T21:08:22.905Z,91.72
2018-04-15T21:10:50.540Z,91.81
2018-04-15T21:13:18.133Z,91.89
2018-04-15T21:15:45.721Z,92.76
2018-04-15T21:18:13.314Z,92.87
2018-04-15T21:20:41.311Z,92.89
2018-04-15T21:23:08.876Z,93.59
2018-04-15T21:25:36.450Z,93.72
2018-04-15T21:28:04.096Z,93.77
2018-04-15T21:30:31.788Z,93.46
2018-04-15T21:32:59.385Z,93.63
2018-04-15T21:35:27.001Z,93.99
2018-04-15T21:37:55.177Z,93.91
2018-04-15T21:40:22.752Z,93.60
2018-04-15T21:42:50.374Z,93.29
2018-04-15T21:45:17.989Z,93.98
2018-04-15T21:47:45.698Z,94.26
2018-04-15T21:50:13.272Z,94.44
2018-04-15T21:52:40.893Z,94.36
2018-04-15T21:55:08.533Z,94.23
2018-04-15T21:57:36.115Z,94.31
2018-04-15T22:00:03.838Z,94.43
2018-04-15T22:02:31.622Z,94.45
2018-04-15T22:04:59.238Z,94.57
2018-04-15T22:07:26.824Z,94.67
2018-04-15T22:09:54.385Z,94.81
2018-04-15T22:12:21.999Z,94.90
2018-04-15T22:14:49.582Z,94.83
2018-04-15T22:19:50.945Z,94.42
2018-04-15T22:22:18.535Z,94.25
2018-04-15T22:24:46.078Z,94.17
2018-04-15T22:27:13.629Z,93.99
2018-04-15T22:29:41.259Z,94.42
2018-04-15T22:32:08.868Z,94.28
2018-04-15T22:34:36.408Z,93.91
2018-04-15T22:37:04.005Z,94.18
2018-04-15T22:39:31.570Z,94.51
2018-04-15T22:41:59.164Z,94.53
2018-04-15T22:44:26.791Z,94.77
2018-04-15T22:46:54.350Z,94.44
2018-04-15T22:49:22.286Z,94.55
2018-04-15T22:51:49.916Z,94.14
2018-04-15T22:54:17.513Z,94.32
2018-04-15T22:56:45.163Z,93.79
2018-04-15T22:59:12.734Z,93.93
2018-04-15T23:01:40.458Z,94.21
2018-04-15T23:04:08.043Z,94.26
2018-04-15T23:06:35.608Z,94.15
2018-04-15T23:09:03.193Z,93.98
2018-04-15T23:11:30.766Z,93.90
2018-04-15T23:13:58.331Z,93.93
2018-04-15T23:16:25.912Z,93.98
2018-04-15T23:18:53.473Z,94.01
2018-04-15T23:21:21.030Z,93.88
2018-04-15T23:23:48.610Z,94.34
2018-04-15T23:26:17.070Z,94.72
2018-04-15T23:28:44.682Z,94.55
2018-04-15T23:31:12.293Z,94.53
2018-04-15T23:33:39.846Z,94.60
2018-04-15T23:36:07.408Z,94.98
2018-04-15T23:38:34.971Z,94.91
2018-04-15T23:41:02.553Z,94.94
2018-04-15T23:43:30.156Z,94.85
2018-04-15T23:45:57.749Z,94.89
2018-04-15T23:48:25.307Z,94.87
2018-04-15T23:50:52.870Z,94.83
2018-04-15T23:53:20.448Z,94.78
2018-04-15T23:55:48.020Z,94.82
2018-04-15T23:58:15.618Z,95.34
